Time;durP1;ratioP1;P1;durP2;ratioP2;P2;SDS_P1;SDS_P2;PMS_P1;PMS_P2;Temp;Humidity;BMP_temperature;BMP_pressure;BME280_temperature;BME280_humidity;BME280_pressure;Samples;Min_cycle;Max_cycle;Signal;HPM_P1;HPM_P2
2023/06/13 04:06:31;;;;;;;1.53;1.30;;;14.90;91.20;;;;;;4978448;28;21012;-69
2023/06/13 04:08:57;;;;;;;1.80;1.70;;;14.90;91.30;;;;;;4983196;28;20429;-69
2023/06/13 04:11:23;;;;;;;2.13;1.77;;;15.00;91.70;;;;;;4994018;28;20254;-70
2023/06/13 04:13:49;;;;;;;1.90;1.80;;;15.00;92.00;;;;;;4994117;28;20403;-70
2023/06/13 04:16:14;;;;;;;1.87;1.77;;;15.20;92.00;;;;;;4994336;28;20404;-70
2023/06/13 04:18:40;;;;;;;2.50;2.30;;;15.30;91.70;;;;;;4993219;28;20183;-69
2023/06/13 04:21:09;;;;;;;2.47;2.30;;;15.40;91.10;;;;;;4994656;28;20171;-70
2023/06/13 04:23:35;;;;;;;3.17;2.40;;;15.60;90.80;;;;;;4993843;28;20204;-70
2023/06/13 04:26:05;;;;;;;3.33;2.10;;;15.90;90.30;;;;;;4994195;28;20427;-70
2023/06/13 04:28:32;;;;;;;2.07;1.90;;;16.20;90.00;;;;;;4994652;28;20973;-70
2023/06/13 04:31:00;;;;;;;1.93;1.83;;;16.40;88.20;;;;;;4992648;28;20415;-68
2023/06/13 04:33:26;;;;;;;2.73;2.47;;;16.60;88.00;;;;;;4993211;28;20438;-71
2023/06/13 04:35:54;;;;;;;2.73;2.53;;;16.80;88.10;;;;;;4992479;28;20447;-69
2023/06/13 04:38:22;;;;;;;2.60;2.40;;;17.00;87.30;;;;;;4992484;28;20505;-69
2023/06/13 04:40:48;;;;;;;1.80;1.70;;;17.20;85.80;;;;;;4994042;28;20491;-69
2023/06/13 04:43:17;;;;;;;3.60;1.83;;;17.30;85.10;;;;;;4993652;28;20549;-70
2023/06/13 04:45:43;;;;;;;1.97;1.87;;;17.40;83.80;;;;;;4993865;28;20511;-68
2023/06/13 04:48:11;;;;;;;2.03;1.90;;;17.50;83.90;;;;;;4989925;28;20506;-69
2023/06/13 04:50:40;;;;;;;2.87;2.03;;;17.50;84.10;;;;;;4994054;28;20403;-69
2023/06/13 04:53:11;;;;;;;2.23;2.03;;;17.60;84.10;;;;;;4993383;28;20465;-71
2023/06/13 04:55:37;;;;;;;2.30;2.10;;;17.60;83.70;;;;;;4992612;28;20475;-70
2023/06/13 04:58:04;;;;;;;2.63;2.53;;;17.60;84.00;;;;;;4993936;28;20475;-69
2023/06/13 05:00:30;;;;;;;2.20;1.90;;;17.60;83.30;;;;;;4994415;28;20427;-69
2023/06/13 05:02:56;;;;;;;6.70;2.70;;;17.70;82.20;;;;;;4993720;28;20448;-69
2023/06/13 05:05:22;;;;;;;2.33;2.13;;;17.70;82.60;;;;;;4991889;28;20463;-71
2023/06/13 05:07:57;;;;;;;2.40;2.00;;;17.60;81.70;;;;;;4993592;28;20443;-70
2023/06/13 05:10:24;;;;;;;2.97;2.50;;;17.60;83.40;;;;;;4993863;28;20577;-70
2023/06/13 05:12:50;;;;;;;2.43;2.23;;;17.60;84.20;;;;;;4992469;28;20923;-65
2023/06/13 05:15:16;;;;;;;1.90;1.80;;;17.70;82.40;;;;;;4993297;28;20444;-64
2023/06/13 05:17:45;;;;;;;2.50;2.30;;;17.70;82.10;;;;;;4993610;28;20482;-66
2023/06/13 05:20:12;;;;;;;2.10;1.70;;;17.70;82.30;;;;;;4993698;28;20421;-66
2023/06/13 05:22:41;;;;;;;2.23;2.00;;;17.70;81.10;;;;;;4993996;28;20436;-66
2023/06/13 05:25:11;;;;;;;2.00;1.90;;;17.70;81.20;;;;;;4997169;28;20445;-65
2023/06/13 05:27:37;;;;;;;2.07;1.80;;;17.80;82.00;;;;;;4997506;28;20410;-65
2023/06/13 05:30:08;;;;;;;2.30;2.10;;;17.80;80.20;;;;;;4997413;28;20413;-66
2023/06/13 05:32:33;;;;;;;2.30;2.10;;;17.90;82.00;;;;;;4997789;28;20754;-66
2023/06/13 05:35:00;;;;;;;3.03;2.10;;;18.00;80.90;;;;;;4996910;28;20505;-67
2023/06/13 05:37:26;;;;;;;2.30;2.10;;;18.40;80.30;;;;;;4997012;28;20179;-69
2023/06/13 05:39:51;;;;;;;2.50;1.70;;;19.00;78.60;;;;;;4996984;28;20430;-67
2023/06/13 05:42:17;;;;;;;2.27;2.07;;;19.50;73.70;;;;;;4997224;28;20265;-67
2023/06/13 05:44:42;;;;;;;1.63;1.53;;;19.70;72.60;;;;;;4996919;28;20249;-65
2023/06/13 05:47:08;;;;;;;1.40;1.30;;;19.80;71.70;;;;;;4997395;28;20214;-67
2023/06/13 05:49:34;;;;;;;4.17;2.27;;;19.50;72.20;;;;;;4995885;28;20179;-67
2023/06/13 05:52:00;;;;;;;1.60;1.50;;;19.40;73.60;;;;;;4996787;28;20168;-67
2023/06/13 05:54:25;;;;;;;1.67;1.57;;;19.30;72.00;;;;;;4996591;28;20530;-67
2023/06/13 05:56:51;;;;;;;2.00;1.90;;;19.30;72.20;;;;;;4996835;28;20215;-66
2023/06/13 05:59:17;;;;;;;3.50;2.27;;;19.20;72.00;;;;;;4996916;28;20178;-67
2023/06/13 06:01:43;;;;;;;1.57;1.50;;;19.10;70.90;;;;;;4996964;28;20178;-66
2023/06/13 06:04:09;;;;;;;1.40;1.30;;;18.90;71.30;;;;;;4996210;28;20471;-66
2023/06/13 06:06:35;;;;;;;2.60;2.40;;;18.90;72.10;;;;;;4996075;28;20441;-66
2023/06/13 06:09:01;;;;;;;1.80;1.70;;;18.90;71.70;;;;;;4996610;28;20305;-67
2023/06/13 06:11:27;;;;;;;1.50;1.40;;;18.90;71.70;;;;;;4996853;28;20410;-67
2023/06/13 06:13:52;;;;;;;1.97;1.50;;;19.00;70.50;;;;;;4996136;28;20181;-66
2023/06/13 06:16:18;;;;;;;2.33;2.17;;;19.10;71.00;;;;;;4995889;28;20536;-66
2023/06/13 06:18:44;;;;;;;1.60;1.50;;;19.10;69.90;;;;;;4996566;28;20185;-66
2023/06/13 06:21:09;;;;;;;1.87;1.77;;;19.20;70.00;;;;;;4996584;28;20229;-68
2023/06/13 06:23:36;;;;;;;2.07;1.97;;;19.30;70.00;;;;;;4994184;28;20203;-67
2023/06/13 06:26:02;;;;;;;1.80;1.70;;;19.30;69.50;;;;;;4974048;28;20262;-66
2023/06/13 06:28:28;;;;;;;1.57;1.47;;;19.50;68.30;;;;;;4970918;28;20428;-66
2023/06/13 06:30:53;;;;;;;1.97;1.77;;;19.60;66.10;;;;;;4989833;28;20554;-65
2023/06/13 06:33:20;;;;;;;1.43;1.43;;;19.70;65.60;;;;;;4992814;28;20190;-66
2023/06/13 06:35:45;;;;;;;1.77;1.67;;;19.70;65.80;;;;;;4983201;28;20237;-66
2023/06/13 06:38:11;;;;;;;1.70;1.60;;;19.70;65.80;;;;;;4992007;28;20415;-66
2023/06/13 06:40:36;;;;;;;1.70;1.60;;;19.70;65.90;;;;;;4991159;28;20241;-68
2023/06/13 06:43:02;;;;;;;1.63;1.53;;;19.70;65.40;;;;;;4986322;28;20233;-66
2023/06/13 06:45:28;;;;;;;1.80;1.70;;;19.60;65.20;;;;;;4987469;28;20200;-67
2023/06/13 06:47:53;;;;;;;1.53;1.43;;;19.70;65.10;;;;;;4994108;28;20190;-65
2023/06/13 06:50:19;;;;;;;1.83;1.73;;;19.60;62.50;;;;;;4993831;28;20247;-68
2023/06/13 06:52:44;;;;;;;1.50;1.40;;;19.60;63.30;;;;;;4982322;28;20286;-67
2023/06/13 06:55:10;;;;;;;2.10;2.00;;;19.60;63.40;;;;;;4975513;28;20670;-66
2023/06/13 06:57:36;;;;;;;1.70;1.60;;;19.60;63.80;;;;;;4992011;28;20180;-68
2023/06/13 07:00:01;;;;;;;2.33;1.87;;;19.70;63.40;;;;;;4994733;28;20180;-65
2023/06/13 07:02:27;;;;;;;1.30;1.20;;;19.90;62.30;;;;;;4994838;28;20270;-69
2023/06/13 07:04:53;;;;;;;1.83;1.73;;;19.90;62.50;;;;;;4992636;28;20461;-66
2023/06/13 07:07:19;;;;;;;1.47;1.43;;;20.00;63.00;;;;;;4976112;28;20223;-66
2023/06/13 07:09:45;;;;;;;1.60;1.50;;;20.20;61.70;;;;;;4981854;28;20452;-65
2023/06/13 07:12:10;;;;;;;2.23;2.10;;;20.20;59.80;;;;;;4995474;28;20183;-69
2023/06/13 07:14:36;;;;;;;2.00;1.90;;;20.20;60.20;;;;;;4988516;28;20207;-62
2023/06/13 07:17:02;;;;;;;1.60;1.50;;;20.20;59.70;;;;;;4995458;28;20171;-62
2023/06/13 07:19:27;;;;;;;1.67;1.20;;;20.20;61.80;;;;;;4992481;28;20254;-64
2023/06/13 07:21:53;;;;;;;1.40;1.30;;;20.40;60.60;;;;;;4980526;28;20187;-65
2023/06/13 07:24:19;;;;;;;2.23;2.03;;;20.50;59.40;;;;;;4975121;28;20216;-66
2023/06/13 07:26:45;;;;;;;1.43;1.33;;;20.60;59.60;;;;;;4991685;28;20419;-67
2023/06/13 07:29:10;;;;;;;1.80;1.70;;;21.00;58.70;;;;;;4993792;28;20182;-65
2023/06/13 07:31:36;;;;;;;1.60;1.50;;;21.40;58.20;;;;;;4997806;28;20180;-67
2023/06/13 07:34:02;;;;;;;2.17;1.60;;;21.90;57.70;;;;;;4983265;28;20197;-66
2023/06/13 07:36:27;;;;;;;2.10;1.90;;;22.50;57.60;;;;;;4996077;28;20756;-63
2023/06/13 07:38:53;;;;;;;2.97;1.30;;;23.20;56.70;;;;;;4998100;28;20189;-65
2023/06/13 07:41:19;;;;;;;2.00;1.90;;;24.10;56.10;;;;;;4981591;28;20274;-64
2023/06/13 07:43:44;;;;;;;2.00;1.40;;;24.90;54.00;;;;;;4978558;28;20290;-64
2023/06/13 07:46:10;;;;;;;1.80;1.70;;;25.50;53.10;;;;;;4990223;28;20211;-64
2023/06/13 07:48:35;;;;;;;1.70;1.60;;;26.00;51.80;;;;;;4993265;28;20231;-62
2023/06/13 07:51:02;;;;;;;2.03;1.93;;;26.50;51.10;;;;;;4994458;28;20624;-63
2023/06/13 07:53:27;;;;;;;2.07;1.97;;;27.00;50.40;;;;;;4979313;28;20199;-63
2023/06/13 07:55:55;;;;;;;1.77;1.67;;;27.20;49.90;;;;;;4984311;28;20442;-65
2023/06/13 07:58:21;;;;;;;2.47;2.00;;;27.40;49.20;;;;;;4990721;28;20637;-65
2023/06/13 08:00:46;;;;;;;1.97;1.87;;;27.60;50.10;;;;;;4981533;28;20460;-70
2023/06/13 08:03:12;;;;;;;1.80;1.70;;;28.00;49.80;;;;;;4981577;28;20204;-68
2023/06/13 08:05:38;;;;;;;2.70;2.50;;;28.40;48.80;;;;;;4972957;28;20263;-64
2023/06/13 08:08:03;;;;;;;2.70;2.50;;;29.00;48.70;;;;;;4973234;28;20634;-66
2023/06/13 08:10:29;;;;;;;2.20;2.00;;;29.40;47.30;;;;;;4974484;28;20183;-65
2023/06/13 08:12:55;;;;;;;2.03;1.93;;;29.60;47.60;;;;;;4976803;28;20188;-66
2023/06/13 08:15:20;;;;;;;2.17;2.07;;;30.10;47.30;;;;;;4980385;28;20207;-65
2023/06/13 08:17:46;;;;;;;2.27;2.07;;;30.60;46.40;;;;;;4994252;28;20179;-67
2023/06/13 08:20:12;;;;;;;2.43;2.33;;;30.70;46.50;;;;;;4993525;28;20175;-67
2023/06/13 08:22:39;;;;;;;1.80;1.70;;;30.70;44.80;;;;;;4990391;28;20185;-66
2023/06/13 08:25:09;;;;;;;2.27;2.17;;;30.20;45.60;;;;;;4975481;28;20284;-66
2023/06/13 08:27:43;;;;;;;2.13;2.03;;;29.70;45.60;;;;;;4974864;28;20524;-65
2023/06/13 08:30:09;;;;;;;2.30;2.10;;;29.80;45.90;;;;;;4981059;28;20855;-66
2023/06/13 08:32:35;;;;;;;2.60;2.40;;;29.90;45.40;;;;;;4980509;28;20382;-64
2023/06/13 08:35:01;;;;;;;2.20;2.00;;;29.80;46.00;;;;;;4982120;28;20987;-66
2023/06/13 08:37:27;;;;;;;2.40;2.20;;;29.90;45.80;;;;;;4993263;28;20175;-66
2023/06/13 08:39:53;;;;;;;2.20;2.00;;;30.00;46.30;;;;;;4991659;28;20404;-65
2023/06/13 08:42:19;;;;;;;2.10;2.00;;;30.30;45.90;;;;;;4981593;28;20191;-67
2023/06/13 08:44:46;;;;;;;2.20;2.10;;;30.60;45.80;;;;;;4992386;28;21070;-65
2023/06/13 08:47:12;;;;;;;2.50;2.30;;;30.90;45.50;;;;;;4994075;28;20439;-66
2023/06/13 08:49:38;;;;;;;2.90;2.70;;;30.70;44.10;;;;;;4993666;28;20410;-66
2023/06/13 08:52:08;;;;;;;2.57;2.37;;;30.20;45.30;;;;;;4993805;28;20444;-66
2023/06/13 08:54:36;;;;;;;5.23;2.73;;;30.20;45.10;;;;;;4992584;28;20207;-66
2023/06/13 08:57:09;;;;;;;3.30;2.70;;;30.30;44.90;;;;;;4978078;28;20426;-66
2023/06/13 08:59:37;;;;;;;2.10;2.00;;;29.90;45.60;;;;;;4978480;28;20390;-66
2023/06/13 09:02:04;;;;;;;2.40;2.20;;;29.80;46.00;;;;;;4978019;28;20405;-66
2023/06/13 09:04:32;;;;;;;2.30;2.10;;;29.70;45.80;;;;;;4994911;28;20950;-64
2023/06/13 09:06:58;;;;;;;2.00;1.90;;;29.60;45.80;;;;;;4997290;28;20474;-64
2023/06/13 09:09:28;;;;;;;2.90;2.63;;;29.60;46.00;;;;;;4994943;28;20799;-65
2023/06/13 09:11:55;;;;;;;2.53;2.33;;;30.20;46.30;;;;;;4977671;28;20378;-64
2023/06/13 09:14:22;;;;;;;2.23;2.07;;;30.90;45.40;;;;;;4977526;28;20435;-65
2023/06/13 09:16:53;;;;;;;2.30;2.20;;;31.20;45.20;;;;;;4977918;28;20866;-64
2023/06/13 09:19:19;;;;;;;2.17;2.07;;;31.10;45.00;;;;;;4978856;28;20420;-66
2023/06/13 09:21:44;;;;;;;2.70;2.50;;;31.10;44.20;;;;;;4997247;28;20425;-64
2023/06/13 09:24:12;;;;;;;2.53;2.33;;;31.40;45.10;;;;;;4992145;28;20606;-65
2023/06/13 09:26:40;;;;;;;1.97;1.87;;;31.40;43.60;;;;;;4983148;28;20538;-64
2023/06/13 09:29:08;;;;;;;2.60;2.40;;;31.40;43.40;;;;;;4978073;28;20419;-64
2023/06/13 09:31:38;;;;;;;2.70;2.50;;;31.40;43.30;;;;;;4983017;28;20401;-64
2023/06/13 09:34:06;;;;;;;2.27;2.07;;;31.60;43.50;;;;;;4977262;28;20415;-65
2023/06/13 09:36:34;;;;;;;2.27;2.17;;;31.70;43.40;;;;;;4990265;28;20411;-66
2023/06/13 09:39:01;;;;;;;2.90;2.70;;;31.60;43.40;;;;;;4996839;28;20453;-64
2023/06/13 09:41:30;;;;;;;2.00;1.90;;;31.60;43.90;;;;;;4978944;28;20402;-65
2023/06/13 09:43:56;;;;;;;1.80;1.70;;;31.90;43.00;;;;;;4996454;28;20540;-64
2023/06/13 09:46:26;;;;;;;2.37;2.20;;;32.10;42.30;;;;;;4996985;28;20410;-66
2023/06/13 09:48:52;;;;;;;2.40;2.27;;;32.10;42.00;;;;;;4996842;28;20912;-65
2023/06/13 09:51:18;;;;;;;3.10;2.90;;;31.90;41.80;;;;;;4996133;28;20422;-67
2023/06/13 09:53:47;;;;;;;2.80;2.60;;;31.70;42.10;;;;;;4996319;28;20419;-66
2023/06/13 09:56:13;;;;;;;2.63;2.43;;;31.70;42.30;;;;;;4985738;28;20200;-66
2023/06/13 09:58:41;;;;;;;2.00;1.90;;;32.10;42.20;;;;;;4992105;28;20979;-67
2023/06/13 10:01:15;;;;;;;3.10;2.90;;;32.30;41.80;;;;;;4996568;28;20259;-65
2023/06/13 10:03:43;;;;;;;2.43;2.23;;;32.20;40.40;;;;;;4996276;28;20431;-65
2023/06/13 10:06:09;;;;;;;2.00;1.90;;;31.80;40.60;;;;;;4983139;28;20518;-65
2023/06/13 10:08:35;;;;;;;2.37;2.27;;;31.40;41.60;;;;;;4976551;28;20383;-67
2023/06/13 10:11:07;;;;;;;2.60;2.40;;;31.20;41.90;;;;;;4976342;28;20939;-68
2023/06/13 10:13:42;;;;;;;2.90;2.60;;;31.20;41.10;;;;;;4989871;28;20214;-66
2023/06/13 10:16:09;;;;;;;2.00;1.90;;;31.00;41.80;;;;;;4996187;28;20937;-65
2023/06/13 10:18:41;;;;;;;2.37;2.17;;;30.70;42.20;;;;;;4995898;28;20848;-67
2023/06/13 10:21:10;;;;;;;2.07;1.97;;;30.50;42.30;;;;;;4995559;28;20431;-66
2023/06/13 10:23:44;;;;;;;3.27;2.20;;;30.40;41.50;;;;;;4994917;28;20466;-66
2023/06/13 10:26:20;;;;;;;3.40;3.10;;;30.60;41.30;;;;;;4996312;28;20513;-65
2023/06/13 10:28:51;;;;;;;3.17;2.90;;;30.30;40.90;;;;;;4995465;28;20466;-64
2023/06/13 10:31:43;;;;;;;2.90;2.70;;;29.90;41.80;;;;;;5011008;28;20741;-64
2023/06/13 10:34:46;;;;;;;1.97;1.87;;;29.60;42.50;;;;;;4994278;28;20405;-65
2023/06/13 10:37:41;;;;;;;1.90;1.80;;;29.60;43.40;;;;;;4982816;28;20398;-65
2023/06/13 10:40:19;;;;;;;2.20;2.10;;;29.90;44.40;;;;;;4978258;28;20422;-66
2023/06/13 10:42:51;;;;;;;2.50;2.30;;;30.50;43.40;;;;;;4995480;28;20753;-66
2023/06/13 10:45:21;;;;;;;2.53;2.33;;;30.80;41.90;;;;;;4992052;28;20435;-65
2023/06/13 10:47:47;;;;;;;2.17;1.97;;;30.70;42.00;;;;;;4974637;28;20458;-66
2023/06/13 10:50:16;;;;;;;2.33;2.13;;;30.70;43.10;;;;;;4989856;28;20405;-65
2023/06/13 10:52:49;;;;;;;2.70;2.50;;;30.40;41.60;;;;;;4976061;28;20172;-65
2023/06/13 10:55:37;;;;;;;3.00;2.70;;;30.00;41.40;;;;;;4983086;28;20421;-65
2023/06/13 10:58:12;;;;;;;3.23;2.33;;;29.70;41.80;;;;;;4976011;28;20747;-65
2023/06/13 11:00:39;;;;;;;1.90;1.80;;;29.50;42.20;;;;;;4987979;28;20389;-66
2023/06/13 11:03:06;;;;;;;2.57;2.37;;;29.60;42.70;;;;;;4994005;28;20433;-65
2023/06/13 11:05:44;;;;;;;2.60;2.13;;;29.60;42.60;;;;;;4975490;28;20521;-66
2023/06/13 11:08:19;;;;;;;2.30;2.10;;;29.40;42.10;;;;;;4975913;28;20390;-66
2023/06/13 11:10:47;;;;;;;2.30;2.20;;;29.30;42.40;;;;;;4987528;28;20396;-64
2023/06/13 11:13:19;;;;;;;2.30;2.20;;;29.00;43.10;;;;;;4994641;28;20414;-64
2023/06/13 11:15:45;;;;;;;2.33;2.13;;;28.10;43.00;;;;;;4988750;28;20840;-65
2023/06/13 11:18:13;;;;;;;2.77;2.57;;;27.30;43.50;;;;;;4990093;28;20433;-66
2023/06/13 11:20:49;;;;;;;2.27;2.17;;;26.70;43.30;;;;;;4993228;28;20429;-66
2023/06/13 11:23:22;;;;;;;1.93;1.83;;;26.10;45.50;;;;;;4994614;28;20454;-66
2023/06/13 11:25:52;;;;;;;3.87;2.70;;;25.80;45.00;;;;;;4994388;28;20405;-64
2023/06/13 11:28:18;;;;;;;2.20;2.10;;;25.50;45.70;;;;;;4994499;28;20501;-65
2023/06/13 11:30:47;;;;;;;1.70;1.60;;;25.30;46.00;;;;;;4994641;28;20423;-64
2023/06/13 11:33:13;;;;;;;2.00;1.90;;;25.10;46.60;;;;;;4992671;28;20844;-65
2023/06/13 11:35:49;;;;;;;2.27;2.07;;;24.90;47.00;;;;;;4986125;28;20444;-63
2023/06/13 11:38:20;;;;;;;2.00;1.90;;;24.80;47.20;;;;;;4974899;28;20403;-64
2023/06/13 11:40:51;;;;;;;2.00;1.90;;;24.80;47.40;;;;;;4975193;28;20439;-66
2023/06/13 11:43:17;;;;;;;2.57;2.37;;;24.80;48.40;;;;;;4979120;28;20504;-67
2023/06/13 11:45:45;;;;;;;1.93;1.83;;;24.70;46.80;;;;;;4993980;28;20473;-68
2023/06/13 11:48:11;;;;;;;2.30;1.93;;;24.70;46.90;;;;;;4993830;28;20427;-66
2023/06/13 11:50:37;;;;;;;2.00;1.90;;;24.70;47.40;;;;;;4993765;28;20389;-66
2023/06/13 11:53:08;;;;;;;2.10;2.00;;;24.60;47.40;;;;;;4989908;28;20426;-66
2023/06/13 11:55:34;;;;;;;1.67;1.53;;;24.60;47.80;;;;;;4993851;28;20282;-66
2023/06/13 11:57:59;;;;;;;1.67;1.57;;;24.60;48.20;;;;;;4994535;28;20491;-65
2023/06/13 12:00:26;;;;;;;3.60;1.80;;;24.70;47.40;;;;;;4993326;28;20850;-67
2023/06/13 12:03:01;;;;;;;3.87;1.63;;;24.70;46.80;;;;;;4994747;28;20577;-66
2023/06/13 12:05:26;;;;;;;1.93;1.70;;;24.60;47.10;;;;;;4976454;28;20458;-66
2023/06/13 12:07:52;;;;;;;1.83;1.73;;;24.60;47.70;;;;;;4994509;28;20428;-66
2023/06/13 12:10:18;;;;;;;1.87;1.77;;;24.60;47.50;;;;;;4993460;28;20635;-65
2023/06/13 12:12:57;;;;;;;2.03;1.93;;;24.70;47.70;;;;;;4994722;28;20663;-67
2023/06/13 12:15:27;;;;;;;2.10;2.00;;;24.80;48.10;;;;;;4993979;28;20565;-67
2023/06/13 12:18:00;;;;;;;3.00;1.97;;;24.80;47.80;;;;;;4993007;28;20469;-68
2023/06/13 12:20:36;;;;;;;2.63;2.47;;;24.90;47.60;;;;;;4994081;28;20918;-69
2023/06/13 12:23:02;;;;;;;2.23;2.03;;;25.00;47.10;;;;;;4994260;28;20456;-67
2023/06/13 12:25:30;;;;;;;1.90;1.80;;;25.00;47.10;;;;;;4993724;28;20426;-67
2023/06/13 12:27:58;;;;;;;1.70;1.60;;;25.00;47.80;;;;;;4994111;28;20407;-66
2023/06/13 12:30:24;;;;;;;3.23;2.10;;;25.00;48.10;;;;;;4994003;28;20450;-67
2023/06/13 12:32:56;;;;;;;2.30;2.13;;;25.10;48.10;;;;;;4994153;28;20411;-67
2023/06/13 12:35:23;;;;;;;1.70;1.60;;;25.10;47.20;;;;;;4993444;28;20427;-67
2023/06/13 12:38:16;;;;;;;2.27;2.07;;;25.10;47.40;;;;;;4993652;28;20431;-67
2023/06/13 12:40:41;;;;;;;2.70;2.00;;;25.30;47.10;;;;;;4991172;28;20401;-66
2023/06/13 12:43:07;;;;;;;2.50;2.30;;;25.30;45.20;;;;;;4993903;28;20508;-67
2023/06/13 12:45:32;;;;;;;2.07;1.80;;;25.30;45.50;;;;;;4992126;28;20195;-67
2023/06/13 12:47:58;;;;;;;2.30;2.20;;;25.30;45.90;;;;;;4982265;28;20242;-67
2023/06/13 12:50:25;;;;;;;1.97;1.80;;;25.20;45.40;;;;;;4979593;28;20175;-66
2023/06/13 12:53:01;;;;;;;1.97;1.87;;;25.20;45.70;;;;;;4982986;28;20421;-66
2023/06/13 12:55:28;;;;;;;2.40;2.20;;;25.10;46.30;;;;;;4984845;28;20441;-67
2023/06/13 12:57:53;;;;;;;1.90;1.80;;;25.10;46.40;;;;;;4992563;28;20415;-68
2023/06/13 13:00:22;;;;;;;2.07;1.97;;;25.20;45.90;;;;;;4974564;28;20411;-67
2023/06/13 13:02:48;;;;;;;2.10;2.00;;;25.20;45.70;;;;;;4974490;28;20172;-67
2023/06/13 13:05:13;;;;;;;3.00;2.40;;;25.30;45.90;;;;;;4978817;28;20453;-67
2023/06/13 13:07:39;;;;;;;2.30;2.20;;;25.30;46.00;;;;;;4993573;28;20687;-67
2023/06/13 13:10:06;;;;;;;2.97;2.57;;;25.30;45.50;;;;;;4993617;28;20803;-66
2023/06/13 13:12:31;;;;;;;2.67;2.47;;;25.30;46.20;;;;;;4994375;28;20179;-67
2023/06/13 13:14:57;;;;;;;2.87;2.67;;;25.30;45.00;;;;;;4993440;28;20404;-67
2023/06/13 13:17:22;;;;;;;2.03;1.87;;;25.40;44.60;;;;;;4993864;28;20183;-68
2023/06/13 13:19:52;;;;;;;2.27;2.17;;;25.40;45.10;;;;;;4993495;28;20180;-67
2023/06/13 13:22:19;;;;;;;2.10;2.00;;;25.50;45.30;;;;;;4993715;28;20506;-67
2023/06/13 13:24:45;;;;;;;1.93;1.70;;;25.50;46.20;;;;;;4993478;28;20824;-67
2023/06/13 13:27:11;;;;;;;2.17;1.97;;;25.60;46.60;;;;;;4994008;28;20482;-67
2023/06/13 13:29:36;;;;;;;2.43;2.30;;;25.70;46.30;;;;;;4993898;28;20649;-67
2023/06/13 13:32:02;;;;;;;2.50;2.40;;;25.70;46.30;;;;;;4993631;28;20179;-67
2023/06/13 13:34:28;;;;;;;2.47;2.27;;;25.70;45.90;;;;;;4993322;28;20606;-66
2023/06/13 13:36:54;;;;;;;2.20;2.07;;;25.70;44.70;;;;;;4994386;28;20513;-68
2023/06/13 13:39:20;;;;;;;1.97;1.87;;;25.60;45.50;;;;;;4994990;28;20515;-67
2023/06/13 13:41:46;;;;;;;2.43;2.10;;;25.60;45.80;;;;;;4994162;28;20396;-68
2023/06/13 13:44:11;;;;;;;1.87;1.77;;;25.50;45.90;;;;;;4996691;28;20598;-67
2023/06/13 13:46:37;;;;;;;2.07;1.97;;;25.50;46.30;;;;;;4998564;28;20167;-66
2023/06/13 13:49:03;;;;;;;2.63;2.53;;;25.50;46.30;;;;;;4997354;28;20204;-67
2023/06/13 13:51:31;;;;;;;1.90;1.80;;;25.50;46.40;;;;;;4995837;28;20182;-66
2023/06/13 13:54:00;;;;;;;2.23;1.80;;;25.50;46.60;;;;;;4997215;28;20180;-66
2023/06/13 13:56:26;;;;;;;2.60;2.40;;;25.40;44.40;;;;;;4997587;28;20420;-66
2023/06/13 13:58:51;;;;;;;2.23;1.93;;;25.30;44.60;;;;;;4996821;28;20398;-68
2023/06/13 14:01:20;;;;;;;2.93;2.27;;;25.30;45.40;;;;;;4996716;28;20780;-67
2023/06/13 14:03:46;;;;;;;2.80;2.40;;;25.30;45.80;;;;;;4994816;28;20666;-66
2023/06/13 14:06:13;;;;;;;2.43;2.23;;;25.40;45.80;;;;;;4996461;28;20927;-67
2023/06/13 14:08:39;;;;;;;2.20;2.07;;;25.40;46.40;;;;;;4996550;28;20414;-66
2023/06/13 14:11:04;;;;;;;1.90;1.80;;;25.40;46.00;;;;;;4996813;28;20419;-67
2023/06/13 14:13:30;;;;;;;2.00;1.90;;;25.50;45.40;;;;;;4995033;28;20925;-67
2023/06/13 14:15:56;;;;;;;1.93;1.83;;;25.50;45.30;;;;;;4996647;28;20187;-67
2023/06/13 14:18:22;;;;;;;2.30;1.97;;;25.60;44.00;;;;;;4996290;28;20796;-67
2023/06/13 14:20:47;;;;;;;2.50;2.40;;;25.70;44.80;;;;;;4996302;28;20171;-67
2023/06/13 14:23:16;;;;;;;2.57;2.03;;;25.70;44.60;;;;;;4995985;28;20848;-65
2023/06/13 14:25:45;;;;;;;2.73;1.93;;;25.70;44.50;;;;;;4996249;28;20217;-67
2023/06/13 14:28:11;;;;;;;2.00;1.90;;;25.70;44.20;;;;;;4996310;28;20399;-67
2023/06/13 14:30:37;;;;;;;1.97;1.77;;;25.70;44.50;;;;;;4996351;28;20413;-67
2023/06/13 14:33:03;;;;;;;2.40;2.27;;;25.70;44.70;;;;;;4988805;28;20436;-69
2023/06/13 14:35:29;;;;;;;2.00;1.90;;;25.80;45.20;;;;;;4988854;28;20880;-67
2023/06/13 14:37:55;;;;;;;2.77;2.57;;;25.80;44.60;;;;;;4996059;28;20407;-66
2023/06/13 14:40:21;;;;;;;2.30;2.10;;;25.90;44.40;;;;;;4995927;28;20700;-67
2023/06/13 14:42:47;;;;;;;2.17;2.00;;;25.90;44.10;;;;;;4990757;28;20515;-59
2023/06/13 14:45:15;;;;;;;1.70;1.60;;;25.80;43.90;;;;;;4976332;28;20606;-61
2023/06/13 14:47:40;;;;;;;2.43;2.23;;;25.80;44.50;;;;;;4980794;28;20431;-64
2023/06/13 14:50:08;;;;;;;2.80;2.60;;;25.70;44.60;;;;;;4996036;28;20414;-61
2023/06/13 14:52:33;;;;;;;3.17;2.20;;;25.70;43.90;;;;;;4991577;28;20183;-63
2023/06/13 14:54:59;;;;;;;2.23;2.03;;;25.70;44.60;;;;;;4980112;28;20446;-59
2023/06/13 14:57:25;;;;;;;2.17;2.07;;;25.70;44.70;;;;;;4976536;28;20172;-63
2023/06/13 14:59:50;;;;;;;2.07;1.90;;;25.70;44.90;;;;;;4976282;28;20180;-61
2023/06/13 15:02:16;;;;;;;2.27;2.17;;;25.70;44.40;;;;;;4979494;28;20474;-64
2023/06/13 15:04:42;;;;;;;1.77;1.67;;;25.70;44.70;;;;;;4994846;28;20460;-60
2023/06/13 15:07:07;;;;;;;2.03;1.93;;;25.80;44.80;;;;;;4995599;28;20175;-60
2023/06/13 15:09:33;;;;;;;3.10;2.47;;;25.80;44.70;;;;;;4995511;28;20246;-65
2023/06/13 15:11:59;;;;;;;2.30;2.10;;;25.80;43.70;;;;;;4995512;28;20262;-64
2023/06/13 15:14:25;;;;;;;2.03;1.80;;;25.80;43.30;;;;;;4994882;28;20562;-60
2023/06/13 15:16:51;;;;;;;1.83;1.70;;;25.70;43.10;;;;;;4995210;28;20438;-66
2023/06/13 15:19:17;;;;;;;2.43;2.23;;;25.60;43.00;;;;;;4994883;28;20435;-64
2023/06/13 15:21:43;;;;;;;2.17;2.03;;;25.60;43.40;;;;;;4985884;28;20431;-61
2023/06/13 15:24:08;;;;;;;2.63;2.43;;;25.60;43.40;;;;;;4994495;28;20217;-63
2023/06/13 15:26:34;;;;;;;2.87;2.67;;;25.60;44.00;;;;;;4995159;28;20207;-64
2023/06/13 15:29:01;;;;;;;2.90;2.70;;;25.50;44.20;;;;;;4981688;28;20594;-65
2023/06/13 15:31:27;;;;;;;1.93;1.83;;;25.50;44.20;;;;;;4978107;28;20201;-67
2023/06/13 15:33:52;;;;;;;2.30;2.20;;;25.40;44.10;;;;;;4995063;28;20520;-66
2023/06/13 15:36:18;;;;;;;1.90;1.80;;;25.50;44.20;;;;;;4977805;28;20188;-65
2023/06/13 15:38:44;;;;;;;2.13;1.83;;;25.50;43.80;;;;;;4975549;28;20593;-66
2023/06/13 15:41:09;;;;;;;2.33;2.13;;;25.50;43.60;;;;;;4975498;28;20177;-64
2023/06/13 15:43:35;;;;;;;1.87;1.77;;;25.50;44.30;;;;;;4974389;28;20204;-66
2023/06/13 15:46:01;;;;;;;2.43;2.30;;;25.40;44.60;;;;;;4977181;28;20207;-68
2023/06/13 15:48:27;;;;;;;2.40;2.20;;;25.40;45.40;;;;;;4980667;28;20643;-65
2023/06/13 15:50:53;;;;;;;2.03;1.83;;;25.40;45.60;;;;;;4993124;28;20430;-65
2023/06/13 15:53:19;;;;;;;3.00;2.70;;;25.50;45.20;;;;;;4994309;28;20183;-70
2023/06/13 15:55:45;;;;;;;2.20;2.10;;;25.40;45.70;;;;;;4983509;28;20583;-65
2023/06/13 15:58:11;;;;;;;2.33;2.13;;;25.40;45.70;;;;;;4975126;28;20423;-62
2023/06/13 16:00:41;;;;;;;1.93;1.83;;;25.40;46.20;;;;;;4979346;28;20423;-65
2023/06/13 16:03:07;;;;;;;2.40;2.17;;;25.40;46.30;;;;;;4993336;28;20458;-71
2023/06/13 16:05:34;;;;;;;2.23;2.10;;;25.40;44.30;;;;;;4993599;28;20530;-69
2023/06/13 16:07:59;;;;;;;2.17;2.07;;;25.40;44.50;;;;;;4994472;28;20469;-65
2023/06/13 16:10:25;;;;;;;4.00;2.93;;;25.40;44.60;;;;;;4993532;28;20501;-69
2023/06/13 16:12:51;;;;;;;1.97;1.87;;;25.30;44.90;;;;;;4992822;28;20207;-66
2023/06/13 16:15:17;;;;;;;2.40;2.27;;;25.30;45.00;;;;;;4993360;28;20192;-67
2023/06/13 16:17:43;;;;;;;2.33;2.23;;;25.30;45.20;;;;;;4993372;28;20439;-63
2023/06/13 16:20:09;;;;;;;2.53;2.37;;;25.30;45.30;;;;;;4992957;28;20653;-64
2023/06/13 16:22:35;;;;;;;1.93;1.83;;;25.30;46.50;;;;;;4992511;28;20589;-65
2023/06/13 16:25:00;;;;;;;2.40;2.23;;;25.30;46.40;;;;;;4993565;28;20541;-65
2023/06/13 16:27:27;;;;;;;3.17;2.43;;;25.30;46.10;;;;;;4994026;28;20194;-63
2023/06/13 16:29:53;;;;;;;2.07;1.73;;;25.30;46.00;;;;;;4991033;28;20186;-64
2023/06/13 16:32:18;;;;;;;1.80;1.70;;;25.30;46.40;;;;;;4973125;28;20415;-62
2023/06/13 16:34:44;;;;;;;2.70;1.93;;;25.30;46.20;;;;;;4973898;28;20278;-63
2023/06/13 16:37:09;;;;;;;2.57;2.37;;;25.30;46.40;;;;;;4974637;28;20176;-63
2023/06/13 16:39:35;;;;;;;2.23;2.10;;;25.30;46.10;;;;;;4974408;28;20176;-66
2023/06/13 16:42:01;;;;;;;2.43;2.33;;;25.20;45.90;;;;;;4991919;28;20190;-69
2023/06/13 16:44:26;;;;;;;3.00;2.63;;;25.20;46.10;;;;;;4984106;28;20655;-65
2023/06/13 16:46:52;;;;;;;2.20;2.10;;;25.10;45.30;;;;;;4974620;28;20168;-62
2023/06/13 16:49:18;;;;;;;2.83;2.60;;;25.10;45.50;;;;;;4974187;28;20179;-62
2023/06/13 16:51:44;;;;;;;2.30;2.20;;;25.10;45.10;;;;;;4990751;28;20179;-61
2023/06/13 16:54:10;;;;;;;2.80;2.60;;;25.00;45.30;;;;;;4993201;28;20417;-62